Time;durP1;ratioP1;P1;durP2;ratioP2;P2;SDS_P1;SDS_P2;PMS_P1;PMS_P2;Temp;Humidity;BMP_temperature;BMP_pressure;BME280_temperature;BME280_humidity;BME280_pressure;Samples;Min_cycle;Max_cycle;Signal;HPM_P1;HPM_P2
2020/12/28 00:02:24;;;;;;;17.77;3.75;;;4.40;99.90;;;;;;10438890;28;20040;-52
2020/12/28 00:07:48;;;;;;;8.60;3.97;;;4.50;99.90;;;;;;10440870;28;20044;-52
2020/12/28 00:13:09;;;;;;;9.55;3.95;;;4.60;99.90;;;;;;10440447;28;20036;-52
2020/12/28 00:18:30;;;;;;;6.72;2.97;;;4.60;99.90;;;;;;10439370;28;20058;-52
2020/12/28 00:23:51;;;;;;;8.65;2.92;;;4.50;99.90;;;;;;10441839;28;20051;-53
2020/12/28 00:29:14;;;;;;;4.85;3.15;;;4.40;99.90;;;;;;10433478;28;20520;-53
2020/12/28 00:34:35;;;;;;;6.32;3.65;;;4.40;99.90;;;;;;10439898;28;20607;-52
2020/12/28 00:39:56;;;;;;;7.90;3.92;;;4.30;99.90;;;;;;10439240;28;20477;-52
2020/12/28 00:45:17;;;;;;;7.63;2.95;;;4.20;99.90;;;;;;10432168;28;20048;-52
2020/12/28 00:50:38;;;;;;;12.65;3.58;;;4.20;99.90;;;;;;10438397;28;20045;-52
2020/12/28 00:55:59;;;;;;;14.18;3.58;;;4.20;99.90;;;;;;10439630;28;20513;-52
2020/12/28 01:01:20;;;;;;;9.88;2.92;;;4.10;99.90;;;;;;10427595;28;20505;-52
2020/12/28 01:06:42;;;;;;;10.00;2.72;;;4.10;99.90;;;;;;10445672;28;20036;-52
2020/12/28 01:12:03;;;;;;;8.07;3.45;;;4.10;99.90;;;;;;10444120;28;20404;-52
2020/12/28 01:17:24;;;;;;;8.32;4.10;;;4.00;99.90;;;;;;10449605;28;20041;-52
2020/12/28 01:22:45;;;;;;;7.93;2.65;;;4.00;99.90;;;;;;10439765;28;20516;-52
2020/12/28 01:28:06;;;;;;;17.27;6.30;;;3.90;99.90;;;;;;10444950;28;20040;-52
2020/12/28 01:33:26;;;;;;;12.00;3.20;;;3.90;99.90;;;;;;10444654;28;20688;-52
2020/12/28 01:38:47;;;;;;;7.72;2.60;;;3.80;99.90;;;;;;10445400;28;20120;-53
2020/12/28 01:44:09;;;;;;;9.40;3.28;;;3.80;99.90;;;;;;10443228;28;20045;-52
2020/12/28 01:49:30;;;;;;;11.40;4.22;;;3.70;99.90;;;;;;10436987;28;20079;-52
2020/12/28 01:54:52;;;;;;;9.55;3.35;;;3.60;99.90;;;;;;10444703;28;20045;-53
2020/12/28 02:00:13;;;;;;;11.23;3.42;;;3.60;99.90;;;;;;10446472;28;20060;-52
2020/12/28 02:05:37;;;;;;;10.32;3.78;;;3.60;99.90;;;;;;10431633;28;20056;-52
2020/12/28 02:10:58;;;;;;;12.50;4.55;;;3.60;99.90;;;;;;10440918;28;20039;-53
2020/12/28 02:16:19;;;;;;;16.60;7.18;;;3.60;99.90;;;;;;10445997;28;20086;-52
2020/12/28 02:21:40;;;;;;;14.13;5.85;;;3.70;99.90;;;;;;10443671;28;20041;-52
2020/12/28 02:27:00;;;;;;;8.10;4.43;;;3.70;99.90;;;;;;10445261;28;20037;-52
2020/12/28 02:32:21;;;;;;;11.00;3.45;;;3.80;99.90;;;;;;10443110;28;20060;-52
2020/12/28 02:37:42;;;;;;;8.00;4.20;;;3.80;99.90;;;;;;10439019;28;20136;-52
2020/12/28 02:43:03;;;;;;;12.88;3.55;;;3.90;99.90;;;;;;10440995;28;20150;-52
2020/12/28 02:48:25;;;;;;;10.20;3.22;;;3.90;99.90;;;;;;10441662;28;20086;-52
2020/12/28 02:53:46;;;;;;;9.45;4.50;;;3.90;99.90;;;;;;10446059;28;20098;-52
2020/12/28 02:59:07;;;;;;;8.98;4.13;;;4.00;99.90;;;;;;10448379;28;20761;-52
2020/12/28 03:04:27;;;;;;;13.80;4.15;;;4.00;99.90;;;;;;10447573;28;20049;-52
2020/12/28 03:09:48;;;;;;;13.90;4.32;;;4.00;99.90;;;;;;10452872;28;20028;-52
2020/12/28 03:15:10;;;;;;;15.10;4.50;;;4.00;99.90;;;;;;10450490;28;20029;-52
2020/12/28 03:20:32;;;;;;;17.55;3.72;;;3.90;99.90;;;;;;10449811;28;20162;-52
2020/12/28 03:25:52;;;;;;;11.77;4.72;;;3.80;99.90;;;;;;10446869;28;20044;-52
2020/12/28 03:31:13;;;;;;;14.45;5.43;;;3.80;99.90;;;;;;10445319;28;20059;-53
2020/12/28 03:36:37;;;;;;;20.83;4.60;;;3.80;99.90;;;;;;10443795;28;20132;-52
2020/12/28 03:41:58;;;;;;;13.65;4.10;;;3.80;99.90;;;;;;10443960;28;20049;-52
2020/12/28 03:47:19;;;;;;;17.73;4.53;;;3.90;99.90;;;;;;10442277;28;20044;-52
2020/12/28 03:52:40;;;;;;;13.95;4.35;;;3.90;99.90;;;;;;10444344;28;22221;-52
2020/12/28 03:58:01;;;;;;;7.85;3.33;;;3.90;99.90;;;;;;10443305;28;20055;-52
2020/12/28 04:03:22;;;;;;;15.77;3.85;;;3.90;99.90;;;;;;10431933;28;20139;-52
2020/12/28 04:08:43;;;;;;;13.85;4.32;;;4.00;99.90;;;;;;10434926;28;20560;-52
2020/12/28 04:14:04;;;;;;;15.40;4.93;;;3.90;99.90;;;;;;10444247;28;20063;-52
2020/12/28 04:19:25;;;;;;;14.40;4.55;;;3.90;99.90;;;;;;10438356;28;20037;-52
2020/12/28 04:24:46;;;;;;;12.05;4.40;;;3.90;99.90;;;;;;10445786;28;20531;-52
2020/12/28 04:30:09;;;;;;;8.20;3.75;;;3.80;99.90;;;;;;10442208;28;20923;-52
2020/12/28 04:35:30;;;;;;;18.60;5.07;;;3.80;99.90;;;;;;10443590;28;20040;-52
2020/12/28 04:40:51;;;;;;;5.63;2.72;;;3.90;99.90;;;;;;10448042;28;20071;-52
2020/12/28 04:46:12;;;;;;;11.90;3.78;;;3.80;99.90;;;;;;10442233;28;20091;-52
2020/12/28 04:51:34;;;;;;;15.07;4.03;;;3.80;99.90;;;;;;10431832;28;20397;-52
2020/12/28 04:56:56;;;;;;;17.98;4.82;;;3.80;99.90;;;;;;10442700;28;20116;-52
2020/12/28 05:02:17;;;;;;;12.40;3.10;;;3.70;99.90;;;;;;10441385;28;20041;-52
2020/12/28 05:07:38;;;;;;;12.13;4.05;;;3.70;99.90;;;;;;10443869;28;20048;-52
2020/12/28 05:13:09;;;;;;;10.80;4.00;;;3.60;99.90;;;;;;10425508;28;20695;-52
2020/12/28 05:18:33;;;;;;;7.05;3.50;;;3.60;99.90;;;;;;10438579;28;20097;-51
2020/12/28 05:23:54;;;;;;;11.20;2.58;;;3.70;99.90;;;;;;10443747;28;20122;-52
2020/12/28 05:29:17;;;;;;;4.72;1.75;;;3.60;99.90;;;;;;10442828;28;20033;-51
2020/12/28 05:34:43;;;;;;;8.05;2.58;;;3.50;99.90;;;;;;10445740;28;20473;-51
2020/12/28 05:40:04;;;;;;;11.43;3.25;;;3.60;99.90;;;;;;10447991;28;20037;-52
2020/12/28 05:45:25;;;;;;;12.73;3.35;;;3.60;99.90;;;;;;10442523;28;20048;-52
2020/12/28 05:50:54;;;;;;;8.93;3.05;;;3.60;99.90;;;;;;10427050;28;20037;-52
2020/12/28 05:56:15;;;;;;;13.13;4.10;;;3.60;99.90;;;;;;10442661;28;20145;-52
2020/12/28 06:01:42;;;;;;;5.43;1.70;;;3.70;99.90;;;;;;10443032;28;20052;-52
2020/12/28 06:07:04;;;;;;;8.20;2.67;;;3.80;99.90;;;;;;10439747;28;20107;-51
2020/12/28 06:12:25;;;;;;;6.25;3.00;;;3.70;99.90;;;;;;10439710;28;20091;-52
2020/12/28 06:17:47;;;;;;;7.60;3.15;;;3.80;99.90;;;;;;10436638;28;20158;-52
2020/12/28 06:23:08;;;;;;;12.05;3.20;;;3.80;99.90;;;;;;10450053;28;20049;-52
2020/12/28 06:28:29;;;;;;;6.82;1.70;;;3.80;99.90;;;;;;10444347;28;20044;-51
2020/12/28 06:33:50;;;;;;;10.45;3.75;;;3.80;99.90;;;;;;10442719;28;20041;-51
2020/12/28 06:39:11;;;;;;;9.82;2.70;;;3.80;99.90;;;;;;10446705;28;20127;-52
2020/12/28 06:44:32;;;;;;;13.63;3.47;;;3.80;99.90;;;;;;10447404;28;20119;-52
2020/12/28 06:49:53;;;;;;;18.10;4.45;;;3.80;99.90;;;;;;10448813;28;20040;-52
2020/12/28 06:55:14;;;;;;;11.40;3.50;;;3.90;99.90;;;;;;10444690;28;20090;-51
2020/12/28 07:00:35;;;;;;;7.88;2.30;;;3.90;99.90;;;;;;10441802;28;20363;-51
2020/12/28 07:06:03;;;;;;;6.15;2.03;;;3.90;99.90;;;;;;10441604;28;20037;-52
2020/12/28 07:11:24;;;;;;;9.43;2.83;;;3.90;99.90;;;;;;10444671;28;20040;-51
2020/12/28 07:16:46;;;;;;;5.95;1.83;;;3.90;99.90;;;;;;10442048;28;20033;-52
2020/12/28 07:22:07;;;;;;;3.80;1.08;;;3.80;99.90;;;;;;10441621;28;20071;-51
2020/12/28 07:27:28;;;;;;;7.10;2.78;;;3.60;99.90;;;;;;10445465;28;20039;-51
2020/12/28 07:32:56;;;;;;;3.58;2.22;;;3.60;99.90;;;;;;10443952;28;20041;-51
2020/12/28 07:38:19;;;;;;;5.67;1.93;;;3.70;99.90;;;;;;10448496;28;20102;-52
2020/12/28 07:44:07;;;;;;;5.93;2.40;;;3.70;99.90;;;;;;10449034;28;20048;-52
2020/12/28 07:49:31;;;;;;;6.38;2.83;;;3.70;99.90;;;;;;10445265;28;20723;-51
2020/12/28 07:55:08;;;;;;;6.53;2.92;;;3.80;99.90;;;;;;10446020;28;20049;-51
2020/12/28 08:00:36;;;;;;;9.88;3.10;;;3.90;99.90;;;;;;10447017;28;20029;-51
2020/12/28 08:06:03;;;;;;;7.20;2.55;;;4.00;99.90;;;;;;10443012;28;20071;-51
2020/12/28 08:11:28;;;;;;;8.82;1.88;;;4.00;99.90;;;;;;10455380;28;20029;-51
2020/12/28 08:16:49;;;;;;;5.28;1.98;;;4.00;99.90;;;;;;10436336;28;20040;-51
2020/12/28 08:22:22;;;;;;;4.30;2.13;;;4.10;99.90;;;;;;10442709;28;20378;-51
2020/12/28 08:27:43;;;;;;;8.10;2.00;;;4.10;99.90;;;;;;10441603;28;20040;-52
2020/12/28 08:33:04;;;;;;;3.40;1.95;;;4.20;99.90;;;;;;10444230;28;20152;-51
2020/12/28 08:38:32;;;;;;;4.68;1.63;;;4.20;99.90;;;;;;10438322;28;20040;-52
2020/12/28 08:43:53;;;;;;;5.15;2.58;;;4.20;99.90;;;;;;10431230;28;20045;-51
2020/12/28 08:49:26;;;;;;;4.32;1.58;;;4.20;99.90;;;;;;10430310;28;20095;-51
2020/12/28 08:55:00;;;;;;;8.88;2.22;;;4.30;99.90;;;;;;10439811;28;20049;-52
2020/12/28 09:00:23;;;;;;;6.30;2.50;;;4.40;99.90;;;;;;10441648;28;20127;-52
2020/12/28 09:05:44;;;;;;;2.88;1.20;;;4.40;99.90;;;;;;10429976;28;20048;-51
2020/12/28 09:11:06;;;;;;;1.42;0.85;;;4.40;99.90;;;;;;10435435;28;20065;-51
2020/12/28 09:16:27;;;;;;;4.35;1.27;;;4.40;99.90;;;;;;10441850;28;20039;-51
2020/12/28 09:21:59;;;;;;;5.20;1.58;;;4.50;99.90;;;;;;10370453;27;20375;-53
2020/12/28 09:27:20;;;;;;;3.53;1.65;;;4.50;99.90;;;;;;10401974;28;20704;-53
2020/12/28 09:32:41;;;;;;;4.13;1.58;;;4.60;99.90;;;;;;10401456;28;20041;-53
2020/12/28 09:38:02;;;;;;;2.55;1.05;;;4.70;99.90;;;;;;10395936;28;20127;-53
2020/12/28 09:43:23;;;;;;;18.35;1.98;;;4.70;99.90;;;;;;10399932;28;20527;-53
2020/12/28 09:48:44;;;;;;;7.38;1.75;;;4.80;99.90;;;;;;10402396;28;20191;-53
2020/12/28 09:54:05;;;;;;;1.27;0.77;;;5.20;99.90;;;;;;10402926;28;20038;-53
2020/12/28 09:59:26;;;;;;;3.90;1.08;;;5.40;99.90;;;;;;10400258;28;20052;-53
2020/12/28 10:04:46;;;;;;;0.60;0.35;;;5.30;99.90;;;;;;10401961;28;20079;-53
2020/12/28 10:10:08;;;;;;;6.85;1.75;;;5.30;99.90;;;;;;10403174;28;20049;-53
2020/12/28 10:15:29;;;;;;;1.98;0.82;;;5.30;99.90;;;;;;10396820;28;20770;-53
2020/12/28 10:20:50;;;;;;;3.63;0.90;;;5.40;99.90;;;;;;10404265;28;20057;-53
2020/12/28 10:26:24;;;;;;;1.88;0.60;;;5.60;99.90;;;;;;10403333;28;20041;-53
2020/12/28 10:31:45;;;;;;;2.60;1.08;;;5.90;99.90;;;;;;10377527;28;20041;-53
2020/12/28 10:37:06;;;;;;;1.38;0.40;;;6.20;99.90;;;;;;10369952;28;20043;-53
2020/12/28 10:42:26;;;;;;;3.38;0.30;;;6.30;99.90;;;;;;10367593;28;20064;-53
2020/12/28 10:47:47;;;;;;;1.05;0.28;;;6.50;99.90;;;;;;10367921;28;20030;-53
2020/12/28 10:53:08;;;;;;;1.17;0.32;;;6.70;99.90;;;;;;10366353;28;20464;-53
2020/12/28 10:58:29;;;;;;;0.65;0.25;;;7.00;99.90;;;;;;10370746;28;20045;-53
2020/12/28 11:03:51;;;;;;;1.10;0.50;;;6.90;99.90;;;;;;10366474;28;20042;-52
2020/12/28 11:09:12;;;;;;;0.95;0.35;;;6.40;99.90;;;;;;10361111;28;20093;-53
2020/12/28 11:14:33;;;;;;;4.03;1.48;;;6.30;99.90;;;;;;10365561;28;20194;-53
2020/12/28 11:19:54;;;;;;;1.67;0.45;;;6.50;99.90;;;;;;10368310;28;20108;-53
2020/12/28 11:25:18;;;;;;;2.47;1.40;;;7.10;99.90;;;;;;10365363;28;20045;-53
2020/12/28 11:30:39;;;;;;;2.17;0.43;;;7.90;99.90;;;;;;10361021;28;20034;-53
2020/12/28 11:36:00;;;;;;;3.03;0.65;;;8.00;99.90;;;;;;10366335;28;20056;-53
2020/12/28 11:41:21;;;;;;;2.67;1.15;;;9.00;99.90;;;;;;10373036;28;20045;-54
2020/12/28 11:46:42;;;;;;;1.10;0.73;;;8.80;99.90;;;;;;10369205;28;20033;-53
2020/12/28 11:52:03;;;;;;;1.73;0.93;;;8.50;99.90;;;;;;10369305;28;20129;-53
2020/12/28 11:57:25;;;;;;;2.97;0.82;;;7.70;99.90;;;;;;10363980;28;20398;-53
2020/12/28 12:02:46;;;;;;;0.90;0.40;;;8.20;99.90;;;;;;10361389;28;20033;-53
2020/12/28 12:08:07;;;;;;;1.02;0.30;;;8.30;99.90;;;;;;10372216;28;20087;-53
2020/12/28 12:13:28;;;;;;;1.20;0.60;;;6.70;99.90;;;;;;10367350;28;20713;-53
2020/12/28 12:18:49;;;;;;;2.00;0.57;;;6.20;99.90;;;;;;10365130;28;20178;-53
2020/12/28 12:24:10;;;;;;;3.00;0.60;;;6.10;99.90;;;;;;10369301;28;20038;-53
2020/12/28 12:29:31;;;;;;;0.88;0.40;;;6.00;99.90;;;;;;10365862;28;20037;-53
2020/12/28 12:34:52;;;;;;;3.10;0.73;;;6.00;99.90;;;;;;10366357;28;20209;-53
2020/12/28 12:40:13;;;;;;;2.05;0.73;;;5.90;99.90;;;;;;10374445;28;20129;-53
2020/12/28 12:45:34;;;;;;;1.48;0.50;;;5.70;99.90;;;;;;10364551;28;20481;-53
2020/12/28 12:50:54;;;;;;;7.43;1.15;;;5.80;99.90;;;;;;10360274;28;20080;-53
2020/12/28 12:56:20;;;;;;;1.10;0.55;;;5.70;99.90;;;;;;10363221;28;20260;-53
2020/12/28 13:01:41;;;;;;;3.53;0.52;;;5.80;99.90;;;;;;10364852;28;20124;-53
2020/12/28 13:07:02;;;;;;;1.00;0.52;;;5.80;99.90;;;;;;10361130;28;20030;-53
2020/12/28 13:12:24;;;;;;;2.25;0.95;;;5.80;99.90;;;;;;10359122;28;20157;-53
2020/12/28 13:17:45;;;;;;;1.45;0.75;;;5.80;99.90;;;;;;10359976;28;20078;-53
2020/12/28 13:23:07;;;;;;;1.40;0.50;;;5.70;99.90;;;;;;10359528;28;20465;-53
2020/12/28 13:28:28;;;;;;;1.80;0.68;;;5.60;99.90;;;;;;10358565;28;20089;-53
2020/12/28 13:33:49;;;;;;;0.80;0.47;;;5.50;99.90;;;;;;10372902;28;20413;-52
2020/12/28 13:39:10;;;;;;;0.30;0.20;;;5.40;99.90;;;;;;10359013;28;20045;-53
2020/12/28 13:44:31;;;;;;;3.13;0.60;;;5.40;99.90;;;;;;10361425;28;20038;-53
2020/12/28 13:49:52;;;;;;;1.67;0.52;;;5.40;99.90;;;;;;10361476;28;20050;-53
2020/12/28 13:55:13;;;;;;;1.20;0.47;;;5.40;99.90;;;;;;10357508;28;20052;-54
2020/12/28 14:00:34;;;;;;;3.67;1.27;;;5.50;99.90;;;;;;10357822;28;20034;-54
2020/12/28 14:05:55;;;;;;;1.00;0.50;;;5.50;99.90;;;;;;10360830;28;20115;-53
2020/12/28 14:11:24;;;;;;;1.65;0.63;;;5.50;99.90;;;;;;10367555;28;20041;-53
2020/12/28 14:16:45;;;;;;;1.98;0.70;;;5.40;99.90;;;;;;10367797;28;20042;-54
2020/12/28 14:22:06;;;;;;;1.33;0.60;;;5.30;99.90;;;;;;10364040;28;21037;-53
2020/12/28 14:27:27;;;;;;;1.75;1.17;;;5.20;99.90;;;;;;10363816;28;20587;-53
2020/12/28 14:32:48;;;;;;;1.77;0.60;;;5.30;99.90;;;;;;10366722;28;20704;-53
2020/12/28 14:38:09;;;;;;;3.95;1.23;;;5.20;99.90;;;;;;10369997;28;20517;-52
2020/12/28 14:43:30;;;;;;;1.08;0.57;;;5.20;99.90;;;;;;10365425;28;20092;-54
2020/12/28 14:48:51;;;;;;;0.90;0.52;;;5.20;99.90;;;;;;10375819;28;20688;-53
2020/12/28 14:54:14;;;;;;;1.40;0.82;;;5.20;99.90;;;;;;10361384;28;21794;-53
2020/12/28 14:59:36;;;;;;;1.77;0.60;;;5.20;99.90;;;;;;10364530;28;20389;-53
2020/12/28 15:04:57;;;;;;;2.05;0.55;;;5.20;99.90;;;;;;10363297;28;20124;-53
2020/12/28 15:10:18;;;;;;;2.20;0.75;;;5.20;99.90;;;;;;10361883;28;20037;-54
2020/12/28 15:15:40;;;;;;;1.65;0.88;;;5.20;99.90;;;;;;10358368;28;20042;-53
2020/12/28 15:21:01;;;;;;;3.50;0.88;;;5.10;99.90;;;;;;10360824;28;20152;-54
2020/12/28 15:26:22;;;;;;;3.42;2.17;;;5.10;99.90;;;;;;10363368;28;20489;-53
2020/12/28 15:31:43;;;;;;;1.13;0.70;;;5.10;99.90;;;;;;10362522;28;20386;-53
2020/12/28 15:37:04;;;;;;;1.50;0.85;;;5.10;99.90;;;;;;10359299;28;21043;-53
2020/12/28 15:42:25;;;;;;;2.88;1.08;;;5.10;99.90;;;;;;10362357;28;20147;-53
2020/12/28 15:47:46;;;;;;;1.45;0.68;;;5.10;99.90;;;;;;10361311;28;20052;-53
2020/12/28 15:53:08;;;;;;;2.47;0.90;;;5.00;99.90;;;;;;10372894;28;20042;-53
2020/12/28 15:58:29;;;;;;;4.53;1.60;;;5.10;99.90;;;;;;10364167;28;20065;-53
2020/12/28 16:03:49;;;;;;;4.38;1.40;;;5.00;99.90;;;;;;10365726;28;20382;-53
2020/12/28 16:09:10;;;;;;;3.08;1.00;;;5.00;99.90;;;;;;10364611;28;20609;-53
2020/12/28 16:14:31;;;;;;;3.92;1.83;;;5.00;99.90;;;;;;10364558;28;20056;-53
2020/12/28 16:19:52;;;;;;;2.70;2.05;;;5.00;99.90;;;;;;10367142;28;20049;-53
2020/12/28 16:25:13;;;;;;;2.25;1.08;;;5.00;99.90;;;;;;10365108;28;20038;-53
2020/12/28 16:30:34;;;;;;;3.47;1.00;;;4.90;99.90;;;;;;10365855;28;20045;-53
2020/12/28 16:35:55;;;;;;;1.40;0.70;;;5.00;99.90;;;;;;10363285;28;20539;-53
2020/12/28 16:41:19;;;;;;;2.13;0.70;;;5.00;99.90;;;;;;10365033;28;20045;-53
2020/12/28 16:46:40;;;;;;;1.80;0.82;;;5.00;99.90;;;;;;10364500;28;20065;-53
2020/12/28 16:52:00;;;;;;;3.45;1.30;;;5.10;99.90;;;;;;10363358;28;20650;-53
2020/12/28 16:57:21;;;;;;;3.10;1.42;;;5.10;99.90;;;;;;10362741;28;20557;-53
2020/12/28 17:02:43;;;;;;;1.90;0.90;;;5.10;99.90;;;;;;10365914;28;20038;-54
2020/12/28 17:08:04;;;;;;;4.25;1.08;;;5.10;99.90;;;;;;10364274;28;20031;-53
2020/12/28 17:13:25;;;;;;;2.78;1.08;;;4.90;99.90;;;;;;10362850;28;20057;-53
2020/12/28 17:18:46;;;;;;;4.35;3.00;;;5.00;99.90;;;;;;10370373;28;20054;-53
2020/12/28 17:24:07;;;;;;;3.10;1.40;;;5.00;99.90;;;;;;10362599;28;20129;-53
2020/12/28 17:29:31;;;;;;;3.75;1.38;;;4.90;99.90;;;;;;10361535;28;20037;-53
2020/12/28 17:34:51;;;;;;;3.83;1.80;;;4.70;99.90;;;;;;10358813;28;20065;-53
2020/12/28 17:40:13;;;;;;;7.15;1.42;;;4.80;99.90;;;;;;10363004;28;20045;-53
2020/12/28 17:45:34;;;;;;;2.28;1.10;;;4.80;99.90;;;;;;10361764;28;20029;-53
2020/12/28 17:50:55;;;;;;;8.82;1.67;;;4.70;99.90;;;;;;10368024;28;20050;-53
2020/12/28 17:56:22;;;;;;;3.10;1.02;;;4.70;99.90;;;;;;10367446;28;20029;-53
2020/12/28 18:01:43;;;;;;;2.88;1.48;;;4.70;99.90;;;;;;10370410;28;20132;-53
2020/12/28 18:07:04;;;;;;;3.13;1.23;;;4.70;99.90;;;;;;10372142;28;20395;-53
2020/12/28 18:12:25;;;;;;;6.18;1.73;;;4.70;99.90;;;;;;10370350;28;20140;-53
2020/12/28 18:17:46;;;;;;;4.57;1.63;;;4.60;99.90;;;;;;10363732;28;20038;-53
2020/12/28 18:23:08;;;;;;;3.72;1.58;;;4.60;99.90;;;;;;10366078;28;20034;-53
2020/12/28 18:28:29;;;;;;;3.13;2.10;;;4.50;99.90;;;;;;10368573;28;20055;-53
2020/12/28 18:33:50;;;;;;;2.95;1.20;;;4.60;99.90;;;;;;10364004;28;20560;-53
2020/12/28 18:39:11;;;;;;;4.03;1.60;;;4.50;99.90;;;;;;10364377;28;20136;-53
2020/12/28 18:44:35;;;;;;;2.47;1.25;;;4.60;99.90;;;;;;10365705;28;20635;-53
2020/12/28 18:49:56;;;;;;;2.08;1.20;;;4.60;99.90;;;;;;10362826;28;20042;-53
2020/12/28 18:55:17;;;;;;;4.00;2.00;;;4.50;99.90;;;;;;10361855;28;20543;-53
2020/12/28 19:00:39;;;;;;;3.42;1.40;;;4.50;99.90;;;;;;10362437;28;20046;-54
2020/12/28 19:06:00;;;;;;;5.97;3.28;;;4.40;99.90;;;;;;10362323;28;20038;-54
2020/12/28 19:11:21;;;;;;;6.10;2.60;;;4.50;99.90;;;;;;10358789;28;20064;-54
2020/12/28 19:16:42;;;;;;;4.28;1.60;;;4.40;99.90;;;;;;10369364;28;20066;-53
2020/12/28 19:22:05;;;;;;;2.83;1.27;;;4.40;99.90;;;;;;10376996;28;20101;-53
2020/12/28 19:27:26;;;;;;;3.92;2.10;;;4.40;99.90;;;;;;10363444;28;20048;-53
2020/12/28 19:32:47;;;;;;;10.25;1.40;;;4.40;99.90;;;;;;10361489;28;20037;-53
2020/12/28 19:38:07;;;;;;;5.82;2.13;;;4.40;99.90;;;;;;10358604;28;20184;-54
2020/12/28 19:43:28;;;;;;;4.03;1.40;;;4.40;99.90;;;;;;10361235;28;20049;-54
2020/12/28 19:48:49;;;;;;;2.70;1.67;;;4.40;99.90;;;;;;10360434;28;20040;-54
2020/12/28 19:54:10;;;;;;;5.85;1.35;;;4.40;99.90;;;;;;10371332;28;20037;-54
2020/12/28 19:59:34;;;;;;;3.22;1.63;;;4.40;99.90;;;;;;10356963;28;20566;-54
2020/12/28 20:04:55;;;;;;;3.25;1.70;;;4.40;99.90;;;;;;10357904;28;20034;-54
2020/12/28 20:10:16;;;;;;;2.53;1.30;;;4.40;99.90;;;;;;10361311;28;20041;-54
2020/12/28 20:15:37;;;;;;;4.18;1.70;;;4.40;99.90;;;;;;10357209;28;20151;-54
2020/12/28 20:20:58;;;;;;;3.28;1.58;;;4.40;99.90;;;;;;10355849;28;20913;-54
2020/12/28 20:26:19;;;;;;;3.97;2.00;;;4.40;99.90;;;;;;10357168;28;20483;-54
2020/12/28 20:31:40;;;;;;;4.90;2.28;;;4.40;99.90;;;;;;10361914;28;20048;-54
2020/12/28 20:37:01;;;;;;;3.58;1.48;;;4.40;99.90;;;;;;10354550;28;20053;-55
2020/12/28 20:42:21;;;;;;;3.85;1.70;;;4.40;99.90;;;;;;10359765;28;20610;-54
2020/12/28 20:47:43;;;;;;;3.92;2.00;;;4.40;99.90;;;;;;10359635;28;20038;-54
2020/12/28 20:53:05;;;;;;;3.75;2.13;;;4.40;99.90;;;;;;10360888;28;20030;-55
2020/12/28 20:58:26;;;;;;;3.15;1.40;;;4.40;99.90;;;;;;10360004;28;20047;-54
2020/12/28 21:03:47;;;;;;;2.40;1.30;;;4.30;99.90;;;;;;10363546;28;20038;-54
2020/12/28 21:09:08;;;;;;;3.60;2.10;;;4.30;99.90;;;;;;10363187;28;20045;-54
2020/12/28 21:14:29;;;;;;;3.67;1.50;;;4.40;99.90;;;;;;10363207;28;20034;-54
2020/12/28 21:19:50;;;;;;;11.65;2.95;;;4.40;99.90;;;;;;10367753;28;21486;-53
2020/12/28 21:25:11;;;;;;;4.35;1.90;;;4.40;99.90;;;;;;10352903;28;20096;-54
2020/12/28 21:30:32;;;;;;;5.80;2.10;;;4.30;99.90;;;;;;10355266;28;20647;-54
2020/12/28 21:35:53;;;;;;;5.72;3.05;;;4.30;99.90;;;;;;10355003;28;20132;-53
2020/12/28 21:41:14;;;;;;;4.18;1.98;;;4.30;99.90;;;;;;10356745;28;20049;-54
2020/12/28 21:46:35;;;;;;;5.35;2.35;;;4.30;99.90;;;;;;10355710;28;20044;-53
2020/12/28 21:51:56;;;;;;;14.55;3.58;;;4.40;99.90;;;;;;10368380;28;20088;-53
2020/12/28 21:57:17;;;;;;;6.65;2.78;;;4.30;99.90;;;;;;10362638;28;20088;-54
2020/12/28 22:02:40;;;;;;;7.55;2.83;;;4.30;99.90;;;;;;10360271;28;20535;-54
2020/12/28 22:08:01;;;;;;;8.13;3.28;;;4.30;99.90;;;;;;10357106;28;20034;-54
2020/12/28 22:13:22;;;;;;;8.60;2.17;;;4.30;99.90;;;;;;10369497;28;20050;-53
2020/12/28 22:18:43;;;;;;;5.15;1.58;;;4.20;99.90;;;;;;10355036;28;20496;-54
2020/12/28 22:24:04;;;;;;;5.20;2.25;;;4.20;99.90;;;;;;10355945;28;20132;-54
2020/12/28 22:29:25;;;;;;;4.60;1.88;;;4.20;99.90;;;;;;10364025;28;20124;-55
2020/12/28 22:34:46;;;;;;;6.18;2.58;;;4.20;99.90;;;;;;10377880;28;20494;-54
2020/12/28 22:40:08;;;;;;;5.55;2.67;;;4.10;99.90;;;;;;10361806;28;20045;-54
2020/12/28 22:45:29;;;;;;;5.82;2.13;;;4.10;99.90;;;;;;10363044;28;20053;-54
2020/12/28 22:50:50;;;;;;;6.88;2.28;;;4.10;99.90;;;;;;10362919;28;20058;-54
2020/12/28 22:56:11;;;;;;;3.92;1.60;;;4.10;99.90;;;;;;10365430;28;20045;-54
2020/12/28 23:01:32;;;;;;;3.80;2.42;;;4.10;99.90;;;;;;10368846;28;20046;-54
2020/12/28 23:06:53;;;;;;;6.43;2.42;;;4.00;99.90;;;;;;10368722;28;20041;-54
2020/12/28 23:12:14;;;;;;;5.68;1.38;;;4.00;99.90;;;;;;10366476;28;20038;-54
2020/12/28 23:17:35;;;;;;;4.30;2.28;;;4.00;99.90;;;;;;10365273;28;20045;-54
2020/12/28 23:22:56;;;;;;;7.28;1.58;;;3.90;99.90;;;;;;10367479;28;20054;-54
2020/12/28 23:28:17;;;;;;;5.55;1.98;;;3.90;99.90;;;;;;10366363;28;20037;-54
2020/12/28 23:33:39;;;;;;;4.22;1.58;;;3.90;99.90;;;;;;10367312;28;20029;-54
2020/12/28 23:39:00;;;;;;;5.53;2.08;;;3.80;99.90;;;;;;10367513;28;20394;-54
2020/12/28 23:44:22;;;;;;;5.20;1.63;;;3.80;99.90;;;;;;10363715;28;20057;-54
2020/12/28 23:49:43;;;;;;;4.40;2.20;;;3.70;99.90;;;;;;10368512;28;20033;-54
2020/12/28 23:55:04;;;;;;;6.70;2.25;;;3.70;99.90;;;;;;10367703;28;20052;-54
